createdAt,value
2018-05-23T00:00:06.434Z,71.60
2018-05-23T00:02:33.908Z,71.50
2018-05-23T00:05:01.402Z,71.40
2018-05-23T00:07:28.853Z,71.40
2018-05-23T00:09:57.075Z,71.20
2018-05-23T00:12:24.546Z,71.20
2018-05-23T00:14:51.984Z,71.00
2018-05-23T00:17:19.471Z,71.10
2018-05-23T00:19:46.931Z,70.90
2018-05-23T00:22:14.411Z,71.50
2018-05-23T00:24:42.630Z,71.80
2018-05-23T00:27:10.120Z,71.80
2018-05-23T00:29:37.559Z,71.40
2018-05-23T00:32:05.063Z,71.10
2018-05-23T00:34:32.543Z,71.30
2018-05-23T00:37:00.025Z,71.10
2018-05-23T00:39:27.510Z,71.30
2018-05-23T00:41:54.964Z,71.40
2018-05-23T00:44:22.445Z,71.50
2018-05-23T00:46:49.902Z,71.80
2018-05-23T00:49:18.154Z,72.00
2018-05-23T00:51:45.627Z,72.00
2018-05-23T00:54:13.866Z,71.90
2018-05-23T00:56:42.145Z,71.70
2018-05-23T00:59:09.628Z,71.70
2018-05-23T01:01:37.847Z,71.70
2018-05-23T01:04:05.431Z,71.60
2018-05-23T01:06:32.884Z,71.20
2018-05-23T01:09:00.320Z,71.30
2018-05-23T01:11:27.795Z,71.10
2018-05-23T01:13:55.262Z,71.20
2018-05-23T01:16:22.726Z,71.20
2018-05-23T01:18:50.195Z,71.10
2018-05-23T01:21:18.432Z,71.20
2018-05-23T01:23:45.884Z,71.20
2018-05-23T01:26:13.350Z,71.40
2018-05-23T01:28:40.802Z,71.50
2018-05-23T01:31:08.369Z,71.80
2018-05-23T01:33:35.932Z,71.90
2018-05-23T01:36:03.483Z,72.10
2018-05-23T01:38:30.943Z,72.00
2018-05-23T01:40:59.218Z,72.00
2018-05-23T01:43:26.657Z,72.00
2018-05-23T01:45:54.111Z,72.20
2018-05-23T01:48:21.583Z,72.30
2018-05-23T01:50:49.042Z,72.50
2018-05-23T01:53:16.603Z,72.40
2018-05-23T01:55:44.066Z,72.70
2018-05-23T01:58:11.541Z,72.90
2018-05-23T02:00:39.767Z,72.60
2018-05-23T02:03:07.251Z,72.60
2018-05-23T02:05:34.698Z,72.30
2018-05-23T02:08:02.186Z,72.00
2018-05-23T02:10:29.617Z,72.00
2018-05-23T02:12:57.089Z,72.00
2018-05-23T02:15:24.525Z,71.70
2018-05-23T02:17:52.026Z,71.50
2018-05-23T02:20:19.500Z,71.90
2018-05-23T02:22:46.966Z,72.20
2018-05-23T02:25:14.449Z,71.90
2018-05-23T02:27:41.907Z,71.70
2018-05-23T02:30:09.388Z,72.50
2018-05-23T02:32:37.636Z,72.50
2018-05-23T02:35:05.102Z,72.10
2018-05-23T02:37:32.542Z,72.40
2018-05-23T02:40:00.045Z,72.60
2018-05-23T02:42:27.524Z,72.60
2018-05-23T02:44:54.996Z,72.60
2018-05-23T02:47:22.448Z,72.50
2018-05-23T02:49:49.929Z,72.50
2018-05-23T02:52:17.374Z,72.40
2018-05-23T02:54:44.836Z,72.50
2018-05-23T02:57:12.298Z,73.40
2018-05-23T02:59:39.742Z,72.50
2018-05-23T03:02:07.222Z,72.30
2018-05-23T03:04:34.699Z,72.40
2018-05-23T03:07:02.946Z,72.60
2018-05-23T03:09:30.422Z,72.60
2018-05-23T03:11:57.910Z,72.80
2018-05-23T03:14:25.358Z,72.70
2018-05-23T03:16:53.699Z,73.20
2018-05-23T03:19:21.319Z,73.20
2018-05-23T03:21:48.781Z,73.20
2018-05-23T03:24:16.233Z,73.10
2018-05-23T03:26:43.724Z,73.00
2018-05-23T03:29:11.187Z,73.00
2018-05-23T03:31:38.683Z,73.10
2018-05-23T03:34:06.154Z,73.30
2018-05-23T03:36:33.613Z,73.40
2018-05-23T03:39:01.090Z,73.50
2018-05-23T03:41:28.540Z,73.40
2018-05-23T03:43:56.046Z,73.60
2018-05-23T03:46:24.265Z,74.00
2018-05-23T03:48:51.737Z,74.00
2018-05-23T03:51:19.313Z,74.30
2018-05-23T03:53:47.530Z,74.80
2018-05-23T03:56:15.013Z,74.70
2018-05-23T03:58:42.460Z,74.90
2018-05-23T04:01:21.852Z,75.00
2018-05-23T04:04:01.743Z,75.70
2018-05-23T04:06:50.129Z,75.70
2018-05-23T04:09:17.605Z,76.10
2018-05-23T04:11:45.870Z,76.70
2018-05-23T04:14:13.341Z,76.70
2018-05-23T04:16:41.726Z,77.00
2018-05-23T04:19:09.974Z,77.10
2018-05-23T04:21:37.428Z,77.10
2018-05-23T04:24:04.922Z,76.80
2018-05-23T04:26:33.130Z,76.40
2018-05-23T04:29:00.611Z,76.40
2018-05-23T04:31:28.051Z,76.40
2018-05-23T04:33:57.144Z,76.50
2018-05-23T04:36:24.604Z,76.50
2018-05-23T04:38:52.082Z,76.30
2018-05-23T04:41:19.536Z,76.00
2018-05-23T04:43:47.049Z,76.00
2018-05-23T04:46:14.499Z,76.20
2018-05-23T04:48:41.963Z,76.60
2018-05-23T04:51:09.444Z,76.60
2018-05-23T04:53:36.902Z,77.00
2018-05-23T04:56:04.378Z,76.60
2018-05-23T04:58:32.598Z,76.80
2018-05-23T05:01:00.102Z,76.80
2018-05-23T05:03:27.606Z,76.70
2018-05-23T05:05:55.115Z,77.00
2018-05-23T05:08:22.674Z,76.80
2018-05-23T05:10:50.139Z,77.10
2018-05-23T05:13:17.585Z,77.10
2018-05-23T05:15:45.798Z,76.70
2018-05-23T05:18:13.318Z,77.60
2018-05-23T05:20:42.297Z,76.80
2018-05-23T05:23:09.743Z,76.80
2018-05-23T05:25:37.229Z,77.00
2018-05-23T05:28:04.698Z,77.00
2018-05-23T05:30:32.963Z,76.80
2018-05-23T05:33:00.572Z,76.70
2018-05-23T05:35:28.026Z,76.80
2018-05-23T05:37:55.510Z,76.50
2018-05-23T05:40:23.051Z,76.30
2018-05-23T05:42:50.543Z,76.30
2018-05-23T05:45:18.002Z,76.30
2018-05-23T05:47:45.473Z,76.50
2018-05-23T05:50:13.707Z,76.70
2018-05-23T05:52:41.194Z,76.70
2018-05-23T05:55:08.682Z,76.70
2018-05-23T05:57:36.139Z,76.80
2018-05-23T06:00:03.618Z,77.00
2018-05-23T06:02:31.083Z,77.00
2018-05-23T06:04:58.559Z,77.00
2018-05-23T06:07:26.050Z,76.90
2018-05-23T06:09:54.347Z,77.60
2018-05-23T06:12:21.766Z,77.50
2018-05-23T06:14:49.238Z,77.70
2018-05-23T06:17:17.540Z,78.90
2018-05-23T06:19:44.985Z,78.80
2018-05-23T06:22:13.226Z,79.10
2018-05-23T06:24:40.696Z,79.10
2018-05-23T06:27:08.963Z,79.30
2018-05-23T06:29:36.425Z,79.30
2018-05-23T06:32:04.791Z,79.50
2018-05-23T06:34:32.286Z,79.30
2018-05-23T06:36:59.760Z,79.80
2018-05-23T06:39:27.267Z,79.60
2018-05-23T06:41:54.802Z,79.60
2018-05-23T06:44:22.290Z,79.60
2018-05-23T06:46:50.509Z,80.00
2018-05-23T06:49:17.986Z,79.90
2018-05-23T06:51:45.455Z,79.80
2018-05-23T06:54:13.733Z,80.00
2018-05-23T06:56:41.178Z,80.10
2018-05-23T06:59:08.657Z,79.80
2018-05-23T07:01:36.119Z,80.00
2018-05-23T07:04:04.396Z,79.80
2018-05-23T07:06:32.623Z,79.80
2018-05-23T07:09:00.073Z,79.80
2018-05-23T07:11:27.552Z,79.80
2018-05-23T07:13:55.033Z,80.00
2018-05-23T07:16:22.518Z,79.60
2018-05-23T07:18:49.976Z,78.80
2018-05-23T07:21:17.489Z,78.70
2018-05-23T07:23:44.950Z,78.20
2018-05-23T07:26:12.423Z,77.90
2018-05-23T07:28:40.651Z,77.30
2018-05-23T07:31:08.146Z,77.20
2018-05-23T07:33:35.615Z,77.00
2018-05-23T07:36:04.703Z,76.10
2018-05-23T07:38:32.245Z,76.10
2018-05-23T07:40:59.769Z,76.20
2018-05-23T07:43:27.219Z,76.40
2018-05-23T07:45:54.770Z,76.50
2018-05-23T07:48:22.170Z,77.10
2018-05-23T07:50:49.609Z,76.70
2018-05-23T07:53:17.086Z,76.50
2018-05-23T07:55:44.538Z,76.60
2018-05-23T07:58:12.031Z,76.50
2018-05-23T08:00:40.243Z,75.10
2018-05-23T08:03:07.731Z,75.10
2018-05-23T08:05:35.290Z,75.00
2018-05-23T08:08:02.749Z,75.00
2018-05-23T08:10:30.223Z,74.90
2018-05-23T08:12:58.462Z,74.40
2018-05-23T08:15:25.905Z,74.40
2018-05-23T08:17:53.383Z,74.20
2018-05-23T08:20:20.991Z,74.50
2018-05-23T08:22:48.462Z,75.00
2018-05-23T08:25:15.968Z,73.70
2018-05-23T08:27:44.222Z,73.70
2018-05-23T08:30:11.675Z,73.70
2018-05-23T08:32:39.175Z,73.70
2018-05-23T08:35:07.450Z,73.50
2018-05-23T08:37:34.978Z,73.50
2018-05-23T08:40:02.472Z,73.40
2018-05-23T08:42:30.730Z,72.40
2018-05-23T08:44:58.971Z,73.50
2018-05-23T08:47:26.548Z,72.60
2018-05-23T08:49:54.016Z,71.90
2018-05-23T08:52:21.473Z,71.80
2018-05-23T08:54:48.954Z,71.60
2018-05-23T08:57:16.414Z,71.20
2018-05-23T08:59:43.904Z,70.60
2018-05-23T09:02:11.348Z,69.90
2018-05-23T09:04:38.858Z,70.20
2018-05-23T09:07:06.325Z,70.10
2018-05-23T09:09:34.600Z,69.80
2018-05-23T09:12:02.851Z,70.10
2018-05-23T09:14:31.090Z,70.50
2018-05-23T09:16:58.563Z,70.20
2018-05-23T09:19:26.034Z,70.10
2018-05-23T09:21:53.498Z,70.30
2018-05-23T09:24:20.956Z,70.50
2018-05-23T09:26:48.433Z,71.00
2018-05-23T09:29:16.657Z,71.20
2018-05-23T09:31:44.170Z,71.20
2018-05-23T09:34:12.382Z,71.20
2018-05-23T09:36:39.852Z,71.20
2018-05-23T09:39:07.382Z,71.50
2018-05-23T09:41:35.618Z,71.80
2018-05-23T09:44:03.106Z,71.80
2018-05-23T09:46:30.605Z,71.30
2018-05-23T09:48:58.871Z,70.90
2018-05-23T09:51:26.328Z,70.60
2018-05-23T09:53:53.815Z,70.80
2018-05-23T09:56:22.067Z,71.00
2018-05-23T09:58:49.543Z,70.90
2018-05-23T10:01:17.010Z,70.70
2018-05-23T10:03:45.256Z,71.70
2018-05-23T10:06:12.714Z,70.90
2018-05-23T10:08:41.718Z,70.50
2018-05-23T10:11:09.210Z,70.60
2018-05-23T10:13:37.453Z,70.50
2018-05-23T10:16:04.911Z,70.50
2018-05-23T10:18:32.378Z,70.80
2018-05-23T10:21:00.634Z,71.50
2018-05-23T10:23:28.095Z,70.60
2018-05-23T10:25:55.612Z,70.10
2018-05-23T10:28:23.117Z,70.30
2018-05-23T10:30:51.355Z,69.60
2018-05-23T10:33:18.828Z,69.00
2018-05-23T10:35:46.303Z,68.50
2018-05-23T10:38:13.789Z,69.30
2018-05-23T10:40:41.330Z,70.10
2018-05-23T10:43:08.782Z,69.50
2018-05-23T10:45:37.003Z,68.30
2018-05-23T10:48:04.497Z,68.30
2018-05-23T10:50:31.955Z,68.70
2018-05-23T10:52:59.439Z,68.60
2018-05-23T10:55:27.664Z,67.90
2018-05-23T10:57:55.138Z,67.80
2018-05-23T11:00:22.587Z,66.50
2018-05-23T11:02:50.256Z,66.70
2018-05-23T11:05:18.534Z,66.30
2018-05-23T11:07:46.102Z,66.30
2018-05-23T11:10:13.666Z,67.10
2018-05-23T11:12:41.932Z,65.60
2018-05-23T11:15:09.389Z,65.50
2018-05-23T11:17:36.871Z,66.70
2018-05-23T11:20:05.082Z,66.00
2018-05-23T11:22:32.575Z,66.00
2018-05-23T11:25:00.137Z,64.90
2018-05-23T11:27:27.593Z,66.10
2018-05-23T11:29:55.067Z,65.10
2018-05-23T11:32:23.299Z,65.20
2018-05-23T11:34:50.766Z,65.20
2018-05-23T11:37:19.005Z,64.50
2018-05-23T11:39:46.486Z,64.40
2018-05-23T11:42:13.947Z,63.50
2018-05-23T11:44:41.437Z,64.00
2018-05-23T11:47:09.663Z,62.00
2018-05-23T11:49:37.295Z,62.90
2018-05-23T11:52:04.804Z,62.80
2018-05-23T11:54:32.250Z,62.30
2018-05-23T11:56:59.721Z,61.10
2018-05-23T11:59:27.265Z,61.10
2018-05-23T12:01:54.734Z,60.50
2018-05-23T12:04:22.203Z,60.00
2018-05-23T12:06:49.755Z,59.20
2018-05-23T12:09:17.202Z,58.60
2018-05-23T12:11:44.684Z,58.80
2018-05-23T12:14:12.913Z,56.80
2018-05-23T12:16:40.370Z,56.70
2018-05-23T12:19:07.828Z,56.70
2018-05-23T12:21:35.324Z,56.40
2018-05-23T12:24:03.558Z,56.20
2018-05-23T12:26:31.040Z,55.50
2018-05-23T12:28:58.471Z,55.40
2018-05-23T12:31:25.946Z,54.40
2018-05-23T12:33:53.405Z,54.80
2018-05-23T12:36:20.890Z,54.00
2018-05-23T12:38:49.134Z,53.40
2018-05-23T12:41:16.607Z,53.30
2018-05-23T12:43:44.052Z,53.50
2018-05-23T12:46:11.546Z,52.90
2018-05-23T12:48:39.000Z,51.50
2018-05-23T12:51:06.462Z,52.30
2018-05-23T12:53:33.937Z,52.00
2018-05-23T12:56:01.396Z,52.00
2018-05-23T12:58:28.867Z,52.30
2018-05-23T13:00:56.318Z,52.30
2018-05-23T13:03:23.822Z,51.70
2018-05-23T13:05:51.266Z,51.80
2018-05-23T13:08:18.761Z,52.70
2018-05-23T13:10:46.223Z,52.50
2018-05-23T13:13:13.727Z,51.60
2018-05-23T13:15:41.199Z,51.90
2018-05-23T13:18:09.450Z,52.80
2018-05-23T13:20:36.942Z,52.80
2018-05-23T13:23:05.220Z,52.90
2018-05-23T13:25:32.751Z,52.90
2018-05-23T13:28:00.367Z,53.20
2018-05-23T13:30:27.816Z,52.20
2018-05-23T13:32:55.277Z,53.20
2018-05-23T13:35:22.779Z,53.40
2018-05-23T13:37:50.232Z,52.80
2018-05-23T13:40:17.727Z,53.10
2018-05-23T13:42:45.953Z,51.90
2018-05-23T13:45:13.434Z,51.90
2018-05-23T13:47:41.650Z,51.60
2018-05-23T13:50:09.134Z,51.50
2018-05-23T13:52:36.590Z,51.20
2018-05-23T13:55:04.121Z,50.70
2018-05-23T13:57:31.522Z,50.50
2018-05-23T13:59:59.032Z,50.30
2018-05-23T14:02:26.486Z,49.80
2018-05-23T14:04:53.973Z,50.20
2018-05-23T14:07:21.535Z,50.60
2018-05-23T14:09:49.055Z,50.20
2018-05-23T14:12:16.497Z,50.10
2018-05-23T14:14:43.972Z,49.30
2018-05-23T14:17:11.448Z,48.30
2018-05-23T14:19:38.911Z,49.30
2018-05-23T14:22:06.482Z,49.90
2018-05-23T14:24:33.941Z,50.00
2018-05-23T14:27:01.472Z,49.80
2018-05-23T14:29:28.921Z,49.70
2018-05-23T14:31:56.425Z,49.90
2018-05-23T14:34:23.894Z,50.20
2018-05-23T14:36:51.355Z,50.30
2018-05-23T14:39:19.592Z,49.70
2018-05-23T14:41:47.102Z,49.60
2018-05-23T14:44:14.580Z,50.10
2018-05-23T14:46:42.038Z,50.30
2018-05-23T14:49:09.541Z,49.80
2018-05-23T14:51:37.007Z,49.90
2018-05-23T14:54:05.275Z,49.80
2018-05-23T14:56:33.503Z,49.20
2018-05-23T14:59:01.007Z,49.20
2018-05-23T15:01:28.452Z,49.40
2018-05-23T15:03:55.962Z,49.40
2018-05-23T15:06:23.433Z,49.80
2018-05-23T15:08:50.898Z,49.10
2018-05-23T15:11:18.378Z,49.20
2018-05-23T15:13:45.901Z,49.00
2018-05-23T15:16:13.353Z,49.50
2018-05-23T15:18:40.841Z,49.60
2018-05-23T15:21:08.316Z,50.20
2018-05-23T15:23:35.772Z,50.90
2018-05-23T15:26:03.250Z,51.20
2018-05-23T15:28:31.475Z,51.30
2018-05-23T15:30:58.947Z,50.70
2018-05-23T15:33:26.463Z,50.40
2018-05-23T15:35:53.954Z,49.60
2018-05-23T15:38:21.407Z,50.20
2018-05-23T15:40:48.884Z,50.40
2018-05-23T15:43:16.426Z,50.30
2018-05-23T15:45:43.909Z,50.30
2018-05-23T15:48:12.143Z,50.10
2018-05-23T15:50:39.646Z,50.10
2018-05-23T15:53:07.899Z,49.80
2018-05-23T15:55:35.375Z,49.80
2018-05-23T15:58:03.612Z,49.80
2018-05-23T16:00:31.073Z,49.80
2018-05-23T16:02:58.609Z,49.80
2018-05-23T16:05:26.051Z,50.20
2018-05-23T16:07:54.350Z,50.20
2018-05-23T16:10:21.820Z,50.50
2018-05-23T16:12:49.325Z,50.00
2018-05-23T16:15:17.594Z,50.10
2018-05-23T16:17:45.845Z,49.90
2018-05-23T16:20:13.322Z,49.70
2018-05-23T16:22:41.565Z,50.40
2018-05-23T16:25:09.071Z,50.40
2018-05-23T16:27:36.527Z,50.50
2018-05-23T16:30:04.015Z,50.80
2018-05-23T16:32:31.497Z,50.90
2018-05-23T16:34:58.993Z,51.00
2018-05-23T16:37:26.506Z,51.50
2018-05-23T16:39:53.939Z,51.30
2018-05-23T16:42:21.537Z,51.70
2018-05-23T16:44:48.970Z,51.80
2018-05-23T16:47:16.460Z,51.80
2018-05-23T16:49:44.694Z,52.00
2018-05-23T16:52:12.199Z,51.90
2018-05-23T16:54:40.439Z,52.30
2018-05-23T16:57:07.944Z,52.30
2018-05-23T16:59:35.398Z,52.90
2018-05-23T17:02:03.224Z,53.10
2018-05-23T17:04:30.680Z,53.20
2018-05-23T17:06:58.156Z,53.10
2018-05-23T17:09:26.393Z,53.70
2018-05-23T17:11:53.891Z,53.70
2018-05-23T17:14:22.127Z,53.90
2018-05-23T17:16:49.584Z,53.90
2018-05-23T17:19:17.075Z,54.10
2018-05-23T17:21:45.305Z,54.50
2018-05-23T17:24:12.772Z,54.40
2018-05-23T17:26:40.263Z,54.30
2018-05-23T17:29:08.504Z,55.40
2018-05-23T17:31:35.974Z,54.80
2018-05-23T17:34:03.439Z,54.90
2018-05-23T17:36:31.681Z,55.30
2018-05-23T17:38:59.164Z,55.10
2018-05-23T17:41:26.607Z,55.10
2018-05-23T17:43:54.105Z,55.30
2018-05-23T17:46:22.302Z,55.50
2018-05-23T17:48:49.930Z,55.50
2018-05-23T17:51:18.136Z,55.20
2018-05-23T17:53:45.645Z,55.10
2018-05-23T17:56:13.899Z,55.10
2018-05-23T17:58:41.365Z,55.10
2018-05-23T18:01:08.847Z,54.90
2018-05-23T18:03:37.168Z,55.30
2018-05-23T18:06:04.705Z,55.20
2018-05-23T18:08:32.134Z,55.10
2018-05-23T18:11:00.485Z,55.70
2018-05-23T18:13:27.950Z,55.30
2018-05-23T18:15:55.530Z,55.30
2018-05-23T18:18:23.781Z,55.30
2018-05-23T18:20:51.251Z,55.30
2018-05-23T18:23:18.718Z,55.20
2018-05-23T18:25:46.977Z,53.50
2018-05-23T18:28:14.497Z,54.00
2018-05-23T18:30:41.953Z,53.90
2018-05-23T18:33:09.426Z,53.40
2018-05-23T18:35:36.931Z,53.40
2018-05-23T18:38:05.207Z,54.10
2018-05-23T18:40:33.456Z,53.40
2018-05-23T18:43:01.015Z,53.40
2018-05-23T18:45:28.511Z,53.50
2018-05-23T18:47:56.027Z,53.50
2018-05-23T18:50:23.508Z,53.30
2018-05-23T18:52:51.755Z,53.10
2018-05-23T18:55:19.244Z,53.10
2018-05-23T18:57:47.515Z,53.30
2018-05-23T19:00:15.768Z,53.70
2018-05-23T19:02:43.323Z,53.70
2018-05-23T19:05:10.808Z,53.80
2018-05-23T19:07:38.277Z,54.20
2018-05-23T19:10:05.795Z,54.00
2018-05-23T19:12:33.257Z,54.30
2018-05-23T19:15:00.758Z,54.70
2018-05-23T19:17:28.235Z,54.40
2018-05-23T19:19:55.889Z,54.50
2018-05-23T19:22:24.008Z,54.40
2018-05-23T19:24:51.492Z,54.30
2018-05-23T19:27:19.015Z,55.00
2018-05-23T19:29:46.476Z,55.50
2018-05-23T19:32:14.747Z,55.50
2018-05-23T19:34:42.297Z,55.50
2018-05-23T19:37:09.767Z,55.70
2018-05-23T19:39:38.050Z,55.90
2018-05-23T19:42:06.324Z,56.00
2018-05-23T19:44:34.567Z,56.10
2018-05-23T19:47:02.131Z,56.00
2018-05-23T19:49:29.603Z,56.20
2018-05-23T19:51:57.157Z,56.30
2018-05-23T19:54:24.644Z,56.40
2018-05-23T19:56:52.149Z,56.60
2018-05-23T19:59:19.635Z,56.90
2018-05-23T20:01:47.119Z,57.00
2018-05-23T20:04:15.375Z,57.40
2018-05-23T20:06:42.919Z,57.70
2018-05-23T20:09:10.378Z,57.80
2018-05-23T20:11:37.931Z,57.90
2018-05-23T20:14:05.513Z,58.00
2018-05-23T20:16:33.682Z,57.90
2018-05-23T20:19:01.959Z,57.70
2018-05-23T20:21:29.520Z,58.20
2018-05-23T20:23:57.798Z,58.00
2018-05-23T20:26:27.229Z,58.20
2018-05-23T20:28:54.721Z,58.20
2018-05-23T20:31:22.164Z,58.40
2018-05-23T20:33:49.634Z,58.60
2018-05-23T20:36:17.097Z,59.00
2018-05-23T20:38:44.572Z,59.10
2018-05-23T20:41:12.855Z,59.70
2018-05-23T20:43:41.218Z,60.40
2018-05-23T20:46:08.710Z,60.30
2018-05-23T20:48:36.190Z,60.30
2018-05-23T20:51:03.656Z,61.00
2018-05-23T20:53:31.152Z,60.90
2018-05-23T20:55:59.385Z,61.10
2018-05-23T20:58:26.989Z,61.10
2018-05-23T21:00:55.127Z,61.50
2018-05-23T21:03:22.577Z,61.50
2018-05-23T21:05:50.068Z,61.90
2018-05-23T21:08:19.266Z,63.00
2018-05-23T21:10:46.737Z,63.00
2018-05-23T21:13:14.284Z,63.10
2018-05-23T21:15:42.552Z,63.30
2018-05-23T21:18:10.894Z,63.30
2018-05-23T21:20:38.398Z,63.80
2018-05-23T21:23:06.663Z,63.70
2018-05-23T21:25:34.141Z,63.70
2018-05-23T21:28:01.610Z,63.50
2018-05-23T21:30:29.099Z,63.80
2018-05-23T21:32:56.556Z,64.70
2018-05-23T21:35:24.081Z,65.10
2018-05-23T21:37:51.565Z,65.00
2018-05-23T21:40:19.052Z,65.20
2018-05-23T21:42:48.045Z,65.90
2018-05-23T21:45:15.519Z,65.90
2018-05-23T21:47:43.788Z,65.70
2018-05-23T21:50:11.319Z,65.70
2018-05-23T21:52:38.842Z,65.60
2018-05-23T21:55:06.301Z,65.70
2018-05-23T21:57:33.774Z,65.90
2018-05-23T22:00:01.266Z,66.00
2018-05-23T22:02:29.546Z,66.20
2018-05-23T22:04:57.774Z,66.20
2018-05-23T22:07:25.286Z,66.20
2018-05-23T22:09:53.528Z,66.00
2018-05-23T22:12:21.006Z,65.90
2018-05-23T22:14:48.482Z,65.80
2018-05-23T22:17:16.025Z,65.80
2018-05-23T22:19:43.503Z,65.80
2018-05-23T22:22:10.959Z,66.10
2018-05-23T22:24:38.477Z,66.10
2018-05-23T22:27:05.955Z,66.20
2018-05-23T22:29:33.510Z,66.10
2018-05-23T22:32:01.041Z,66.20
2018-05-23T22:34:28.531Z,65.90
2018-05-23T22:36:56.761Z,65.70
2018-05-23T22:39:24.279Z,65.70
2018-05-23T22:41:52.525Z,66.10
2018-05-23T22:44:19.993Z,66.10
2018-05-23T22:46:48.227Z,67.10
2018-05-23T22:49:15.690Z,66.30
2018-05-23T22:51:43.199Z,67.00
2018-05-23T22:54:10.648Z,67.00
2018-05-23T22:56:38.903Z,67.30
2018-05-23T22:59:06.438Z,67.30
2018-05-23T23:01:33.922Z,67.70
2018-05-23T23:04:01.399Z,67.80
2018-05-23T23:06:28.863Z,67.70
2018-05-23T23:08:56.383Z,67.70
2018-05-23T23:11:23.855Z,67.80
2018-05-23T23:13:52.071Z,67.90
2018-05-23T23:16:19.562Z,67.80
2018-05-23T23:18:47.048Z,68.00
2018-05-23T23:21:15.284Z,67.90
2018-05-23T23:23:42.737Z,67.90
2018-05-23T23:26:10.224Z,68.10
2018-05-23T23:28:37.686Z,68.00
2018-05-23T23:31:05.910Z,68.30
2018-05-23T23:33:33.389Z,68.20
2018-05-23T23:36:00.847Z,68.20
2018-05-23T23:38:28.340Z,68.20
2018-05-23T23:40:55.796Z,68.40
2018-05-23T23:43:23.319Z,68.50
2018-05-23T23:45:50.949Z,68.60
2018-05-23T23:48:18.310Z,69.30
2018-05-23T23:50:45.762Z,68.80
2018-05-23T23:53:13.251Z,69.00
2018-05-23T23:55:40.726Z,69.30
2018-05-23T23:58:08.943Z,69.80
